sensor_id;sensor_type;location;lat;lon;timestamp;P1;P2;P0
49343;PMS5003;35210;41.606;-87.602;2023-01-16T00:01:31;18.40;17.80;11.00
49343;PMS5003;35210;41.606;-87.602;2023-01-16T00:03:59;11.00;11.00;7.00
49343;PMS5003;35210;41.606;-87.602;2023-01-16T00:06:27;18.20;18.20;9.20
49343;PMS5003;35210;41.606;-87.602;2023-01-16T00:08:56;18.60;15.20;9.80
49343;PMS5003;35210;41.606;-87.602;2023-01-16T00:11:25;19.40;16.00;10.60
49343;PMS5003;35210;41.606;-87.602;2023-01-16T00:13:53;12.00;10.20;5.00
49343;PMS5003;35210;41.606;-87.602;2023-01-16T00:16:23;22.80;21.80;11.40
49343;PMS5003;35210;41.606;-87.602;2023-01-16T00:18:53;19.00;16.00;9.40
49343;PMS5003;35210;41.606;-87.602;2023-01-16T00:21:22;12.20;8.20;1.00
49343;PMS5003;35210;41.606;-87.602;2023-01-16T00:23:52;20.00;16.20;10.20
49343;PMS5003;35210;41.606;-87.602;2023-01-16T00:26:21;23.40;22.00;10.00
49343;PMS5003;35210;41.606;-87.602;2023-01-16T00:28:50;21.00;18.20;11.00
49343;PMS5003;35210;41.606;-87.602;2023-01-16T00:31:19;22.20;19.60;10.00
49343;PMS5003;35210;41.606;-87.602;2023-01-16T00:33:49;17.80;17.00;9.60
49343;PMS5003;35210;41.606;-87.602;2023-01-16T00:36:19;24.00;19.00;10.20
49343;PMS5003;35210;41.606;-87.602;2023-01-16T00:38:47;19.40;17.80;10.80
49343;PMS5003;35210;41.606;-87.602;2023-01-16T00:41:15;24.60;19.20;10.00
49343;PMS5003;35210;41.606;-87.602;2023-01-16T00:43:45;19.80;16.40;10.40
49343;PMS5003;35210;41.606;-87.602;2023-01-16T00:46:13;24.00;21.60;10.00
49343;PMS5003;35210;41.606;-87.602;2023-01-16T00:48:42;27.40;19.20;10.40
49343;PMS5003;35210;41.606;-87.602;2023-01-16T00:51:10;19.20;17.00;9.20
49343;PMS5003;35210;41.606;-87.602;2023-01-16T00:53:40;21.00;17.60;10.20
49343;PMS5003;35210;41.606;-87.602;2023-01-16T00:56:08;19.40;16.20;1.40
49343;PMS5003;35210;41.606;-87.602;2023-01-16T00:58:37;20.00;15.60;9.80
49343;PMS5003;35210;41.606;-87.602;2023-01-16T01:01:05;23.60;19.80;11.00
49343;PMS5003;35210;41.606;-87.602;2023-01-16T01:03:33;31.40;26.40;14.60
49343;PMS5003;35210;41.606;-87.602;2023-01-16T01:06:04;20.20;18.20;10.40
49343;PMS5003;35210;41.606;-87.602;2023-01-16T01:08:34;22.00;18.00;10.00
49343;PMS5003;35210;41.606;-87.602;2023-01-16T01:11:09;27.00;22.80;11.00
49343;PMS5003;35210;41.606;-87.602;2023-01-16T01:13:39;15.40;14.40;10.40
49343;PMS5003;35210;41.606;-87.602;2023-01-16T01:16:08;23.00;22.00;13.00
49343;PMS5003;35210;41.606;-87.602;2023-01-16T01:18:37;14.40;13.40;8.60
49343;PMS5003;35210;41.606;-87.602;2023-01-16T01:21:05;15.80;15.80;10.80
49343;PMS5003;35210;41.606;-87.602;2023-01-16T01:23:37;18.40;15.20;10.00
49343;PMS5003;35210;41.606;-87.602;2023-01-16T01:26:06;24.40;20.00;12.00
49343;PMS5003;35210;41.606;-87.602;2023-01-16T01:28:36;19.40;19.40;14.80
49343;PMS5003;35210;41.606;-87.602;2023-01-16T01:31:05;15.00;12.20;7.00
49343;PMS5003;35210;41.606;-87.602;2023-01-16T01:33:36;20.00;20.00;10.80
49343;PMS5003;35210;41.606;-87.602;2023-01-16T01:36:05;15.60;15.00;9.60
49343;PMS5003;35210;41.606;-87.602;2023-01-16T01:38:35;20.80;19.20;10.20
49343;PMS5003;35210;41.606;-87.602;2023-01-16T01:41:04;18.40;15.60;10.60
49343;PMS5003;35210;41.606;-87.602;2023-01-16T01:43:42;15.60;14.40;7.20
49343;PMS5003;35210;41.606;-87.602;2023-01-16T01:46:18;23.60;20.40;10.40
49343;PMS5003;35210;41.606;-87.602;2023-01-16T01:48:51;29.80;22.60;15.40
49343;PMS5003;35210;41.606;-87.602;2023-01-16T01:51:23;28.00;25.00;14.40
49343;PMS5003;35210;41.606;-87.602;2023-01-16T01:53:57;30.80;24.40;13.40
49343;PMS5003;35210;41.606;-87.602;2023-01-16T01:56:32;19.00;14.60;7.40
49343;PMS5003;35210;41.606;-87.602;2023-01-16T01:59:07;23.00;19.20;10.00
49343;PMS5003;35210;41.606;-87.602;2023-01-16T02:01:52;20.00;11.40;5.00
49343;PMS5003;35210;41.606;-87.602;2023-01-16T02:04:22;20.20;15.60;5.00
49343;PMS5003;35210;41.606;-87.602;2023-01-16T02:06:53;16.60;15.00;9.60
49343;PMS5003;35210;41.606;-87.602;2023-01-16T02:09:22;26.20;20.80;11.40
49343;PMS5003;35210;41.606;-87.602;2023-01-16T02:11:53;30.00;24.00;14.00
49343;PMS5003;35210;41.606;-87.602;2023-01-16T02:14:25;9.60;6.80;5.00
49343;PMS5003;35210;41.606;-87.602;2023-01-16T02:16:57;20.00;19.20;9.80
49343;PMS5003;35210;41.606;-87.602;2023-01-16T02:19:50;26.40;24.60;13.20
49343;PMS5003;35210;41.606;-87.602;2023-01-16T02:22:38;16.60;13.60;7.00
49343;PMS5003;35210;41.606;-87.602;2023-01-16T02:25:36;11.80;10.40;6.20
49343;PMS5003;35210;41.606;-87.602;2023-01-16T02:28:38;18.00;12.20;7.00
49343;PMS5003;35210;41.606;-87.602;2023-01-16T02:31:39;16.20;16.20;8.40
49343;PMS5003;35210;41.606;-87.602;2023-01-16T02:34:25;15.80;14.80;7.20
49343;PMS5003;35210;41.606;-87.602;2023-01-16T02:37:10;22.20;16.40;7.40
49343;PMS5003;35210;41.606;-87.602;2023-01-16T02:39:49;7.80;7.80;5.80
49343;PMS5003;35210;41.606;-87.602;2023-01-16T02:42:26;14.20;11.40;7.00
49343;PMS5003;35210;41.606;-87.602;2023-01-16T02:45:01;16.20;14.40;7.00
49343;PMS5003;35210;41.606;-87.602;2023-01-16T02:47:41;14.20;11.60;5.60
49343;PMS5003;35210;41.606;-87.602;2023-01-16T02:50:17;12.40;10.60;5.80
49343;PMS5003;35210;41.606;-87.602;2023-01-16T02:52:51;14.00;12.80;8.00
49343;PMS5003;35210;41.606;-87.602;2023-01-16T02:55:26;18.40;16.60;7.00
49343;PMS5003;35210;41.606;-87.602;2023-01-16T02:57:59;13.40;11.20;6.60
49343;PMS5003;35210;41.606;-87.602;2023-01-16T03:00:30;25.20;22.80;11.00
49343;PMS5003;35210;41.606;-87.602;2023-01-16T03:03:02;18.00;15.00;7.00
49343;PMS5003;35210;41.606;-87.602;2023-01-16T03:05:31;19.00;17.00;8.80
49343;PMS5003;35210;41.606;-87.602;2023-01-16T03:11:12;19.80;19.20;8.20
49343;PMS5003;35210;41.606;-87.602;2023-01-16T03:14:01;16.40;16.00;7.20
49343;PMS5003;35210;41.606;-87.602;2023-01-16T03:16:55;10.60;9.60;6.80
49343;PMS5003;35210;41.606;-87.602;2023-01-16T03:19:43;12.80;11.00;7.00
49343;PMS5003;35210;41.606;-87.602;2023-01-16T03:22:24;13.40;13.00;6.00
49343;PMS5003;35210;41.606;-87.602;2023-01-16T03:25:13;19.00;16.60;7.60
49343;PMS5003;35210;41.606;-87.602;2023-01-16T03:27:54;16.60;14.20;7.80
49343;PMS5003;35210;41.606;-87.602;2023-01-16T03:30:33;13.80;11.20;7.20
49343;PMS5003;35210;41.606;-87.602;2023-01-16T03:33:14;15.40;15.00;7.80
49343;PMS5003;35210;41.606;-87.602;2023-01-16T03:35:53;13.60;13.60;7.00
49343;PMS5003;35210;41.606;-87.602;2023-01-16T03:38:26;11.80;10.00;5.00
49343;PMS5003;35210;41.606;-87.602;2023-01-16T03:40:58;15.20;12.60;8.00
49343;PMS5003;35210;41.606;-87.602;2023-01-16T03:43:30;13.00;13.00;8.20
49343;PMS5003;35210;41.606;-87.602;2023-01-16T03:46:04;15.40;11.60;6.80
49343;PMS5003;35210;41.606;-87.602;2023-01-16T03:48:36;16.20;12.40;6.00
49343;PMS5003;35210;41.606;-87.602;2023-01-16T03:51:15;14.60;10.60;6.00
49343;PMS5003;35210;41.606;-87.602;2023-01-16T03:53:51;9.40;8.00;5.00
49343;PMS5003;35210;41.606;-87.602;2023-01-16T03:56:30;13.20;12.40;7.00
49343;PMS5003;35210;41.606;-87.602;2023-01-16T03:59:03;13.60;12.20;6.00
49343;PMS5003;35210;41.606;-87.602;2023-01-16T04:01:34;11.60;9.40;6.00
49343;PMS5003;35210;41.606;-87.602;2023-01-16T04:04:06;11.80;9.60;5.80
49343;PMS5003;35210;41.606;-87.602;2023-01-16T04:06:42;11.40;11.00;6.40
49343;PMS5003;35210;41.606;-87.602;2023-01-16T04:09:17;11.40;10.60;5.80
49343;PMS5003;35210;41.606;-87.602;2023-01-16T04:11:50;9.60;7.80;4.60
49343;PMS5003;35210;41.606;-87.602;2023-01-16T04:14:22;11.00;8.80;6.00
49343;PMS5003;35210;41.606;-87.602;2023-01-16T04:16:53;9.60;7.60;5.40
49343;PMS5003;35210;41.606;-87.602;2023-01-16T04:19:22;8.00;7.40;6.00
49343;PMS5003;35210;41.606;-87.602;2023-01-16T04:21:56;9.20;8.00;6.00
49343;PMS5003;35210;41.606;-87.602;2023-01-16T04:24:25;8.40;7.20;5.00
49343;PMS5003;35210;41.606;-87.602;2023-01-16T04:26:53;11.00;8.60;4.60
49343;PMS5003;35210;41.606;-87.602;2023-01-16T04:29:21;10.60;8.80;5.40
49343;PMS5003;35210;41.606;-87.602;2023-01-16T04:31:50;11.20;7.20;4.80
49343;PMS5003;35210;41.606;-87.602;2023-01-16T04:34:18;6.80;6.80;5.00
49343;PMS5003;35210;41.606;-87.602;2023-01-16T04:36:46;12.60;6.40;3.00
49343;PMS5003;35210;41.606;-87.602;2023-01-16T04:39:16;13.80;10.20;4.60
49343;PMS5003;35210;41.606;-87.602;2023-01-16T04:41:47;9.20;9.20;5.20
49343;PMS5003;35210;41.606;-87.602;2023-01-16T04:44:17;6.60;6.60;3.00
49343;PMS5003;35210;41.606;-87.602;2023-01-16T04:46:45;10.40;9.60;5.00
49343;PMS5003;35210;41.606;-87.602;2023-01-16T04:49:14;9.00;7.40;4.40
49343;PMS5003;35210;41.606;-87.602;2023-01-16T04:51:43;7.80;7.80;3.80
49343;PMS5003;35210;41.606;-87.602;2023-01-16T04:54:13;13.80;9.60;4.20
49343;PMS5003;35210;41.606;-87.602;2023-01-16T04:56:44;11.00;9.20;5.00
49343;PMS5003;35210;41.606;-87.602;2023-01-16T04:59:13;6.40;6.40;3.00
49343;PMS5003;35210;41.606;-87.602;2023-01-16T05:01:43;11.00;7.40;5.00
49343;PMS5003;35210;41.606;-87.602;2023-01-16T05:04:12;10.80;8.00;4.20
49343;PMS5003;35210;41.606;-87.602;2023-01-16T05:06:41;8.20;6.20;3.00
49343;PMS5003;35210;41.606;-87.602;2023-01-16T05:09:10;8.80;8.80;3.00
49343;PMS5003;35210;41.606;-87.602;2023-01-16T05:11:39;6.80;3.60;2.20
49343;PMS5003;35210;41.606;-87.602;2023-01-16T05:14:08;6.20;5.20;3.40
49343;PMS5003;35210;41.606;-87.602;2023-01-16T05:16:36;7.00;7.00;5.00
49343;PMS5003;35210;41.606;-87.602;2023-01-16T05:19:07;6.80;6.00;2.60
49343;PMS5003;35210;41.606;-87.602;2023-01-16T05:21:36;5.20;5.20;3.00
49343;PMS5003;35210;41.606;-87.602;2023-01-16T05:24:06;7.00;6.40;2.40
49343;PMS5003;35210;41.606;-87.602;2023-01-16T05:26:36;12.20;10.00;5.20
49343;PMS5003;35210;41.606;-87.602;2023-01-16T05:29:06;6.00;6.00;3.00
49343;PMS5003;35210;41.606;-87.602;2023-01-16T05:31:34;7.80;7.80;3.00
49343;PMS5003;35210;41.606;-87.602;2023-01-16T05:34:03;7.80;7.60;4.20
49343;PMS5003;35210;41.606;-87.602;2023-01-16T05:36:31;10.40;7.00;5.20
49343;PMS5003;35210;41.606;-87.602;2023-01-16T05:39:00;6.80;6.80;3.00
49343;PMS5003;35210;41.606;-87.602;2023-01-16T05:41:28;6.20;4.80;2.00
49343;PMS5003;35210;41.606;-87.602;2023-01-16T05:43:59;6.20;3.80;2.60
49343;PMS5003;35210;41.606;-87.602;2023-01-16T05:46:28;3.00;3.00;2.00
49343;PMS5003;35210;41.606;-87.602;2023-01-16T05:48:58;7.00;5.20;2.00
49343;PMS5003;35210;41.606;-87.602;2023-01-16T05:51:26;7.00;6.00;2.20
49343;PMS5003;35210;41.606;-87.602;2023-01-16T05:53:55;6.80;4.80;2.20
49343;PMS5003;35210;41.606;-87.602;2023-01-16T05:56:23;6.80;6.80;3.00
49343;PMS5003;35210;41.606;-87.602;2023-01-16T05:58:51;6.80;6.80;3.00
49343;PMS5003;35210;41.606;-87.602;2023-01-16T06:01:22;6.60;6.00;2.60
49343;PMS5003;35210;41.606;-87.602;2023-01-16T06:03:52;7.60;5.60;3.00
49343;PMS5003;35210;41.606;-87.602;2023-01-16T06:06:20;5.40;5.40;3.00
49343;PMS5003;35210;41.606;-87.602;2023-01-16T06:08:51;6.00;4.80;3.00
49343;PMS5003;35210;41.606;-87.602;2023-01-16T06:11:19;6.40;6.40;2.80
49343;PMS5003;35210;41.606;-87.602;2023-01-16T06:13:48;7.00;5.00;2.00
49343;PMS5003;35210;41.606;-87.602;2023-01-16T06:16:16;7.00;5.20;3.00
49343;PMS5003;35210;41.606;-87.602;2023-01-16T06:18:44;5.80;5.80;3.00
49343;PMS5003;35210;41.606;-87.602;2023-01-16T06:21:14;4.40;4.40;2.00
49343;PMS5003;35210;41.606;-87.602;2023-01-16T06:23:43;8.00;6.80;3.00
49343;PMS5003;35210;41.606;-87.602;2023-01-16T06:26:15;4.80;4.80;2.00
49343;PMS5003;35210;41.606;-87.602;2023-01-16T06:28:45;6.40;6.00;3.00
49343;PMS5003;35210;41.606;-87.602;2023-01-16T06:31:13;7.80;7.20;3.00
49343;PMS5003;35210;41.606;-87.602;2023-01-16T06:33:42;5.60;5.60;2.60
49343;PMS5003;35210;41.606;-87.602;2023-01-16T06:36:10;5.80;5.00;3.00
49343;PMS5003;35210;41.606;-87.602;2023-01-16T06:38:40;3.60;3.60;2.00
49343;PMS5003;35210;41.606;-87.602;2023-01-16T06:41:09;4.00;3.40;1.80
49343;PMS5003;35210;41.606;-87.602;2023-01-16T06:43:37;4.40;4.40;2.00
49343;PMS5003;35210;41.606;-87.602;2023-01-16T06:46:05;7.00;6.80;4.00
49343;PMS5003;35210;41.606;-87.602;2023-01-16T06:48:33;4.60;3.00;2.00
49343;PMS5003;35210;41.606;-87.602;2023-01-16T06:51:01;6.00;6.00;2.60
49343;PMS5003;35210;41.606;-87.602;2023-01-16T06:53:30;6.20;5.60;2.80
49343;PMS5003;35210;41.606;-87.602;2023-01-16T06:56:00;7.00;6.00;2.00
49343;PMS5003;35210;41.606;-87.602;2023-01-16T06:58:29;6.00;5.80;2.20
49343;PMS5003;35210;41.606;-87.602;2023-01-16T07:00:57;6.20;5.80;2.00
49343;PMS5003;35210;41.606;-87.602;2023-01-16T07:03:25;6.20;5.20;2.60
49343;PMS5003;35210;41.606;-87.602;2023-01-16T07:05:53;6.40;3.80;2.00
49343;PMS5003;35210;41.606;-87.602;2023-01-16T07:08:21;6.60;3.60;3.00
49343;PMS5003;35210;41.606;-87.602;2023-01-16T07:10:50;5.80;5.80;3.00
49343;PMS5003;35210;41.606;-87.602;2023-01-16T07:13:20;5.80;5.00;2.60
49343;PMS5003;35210;41.606;-87.602;2023-01-16T07:15:52;4.60;4.20;2.60
49343;PMS5003;35210;41.606;-87.602;2023-01-16T07:18:38;3.20;2.00;1.00
49343;PMS5003;35210;41.606;-87.602;2023-01-16T07:21:26;5.80;5.00;2.20
49343;PMS5003;35210;41.606;-87.602;2023-01-16T07:24:14;5.00;5.00;3.00
49343;PMS5003;35210;41.606;-87.602;2023-01-16T07:26:47;7.00;5.40;3.00
49343;PMS5003;35210;41.606;-87.602;2023-01-16T07:29:21;5.80;3.60;2.00
49343;PMS5003;35210;41.606;-87.602;2023-01-16T07:31:50;6.00;5.00;2.60
49343;PMS5003;35210;41.606;-87.602;2023-01-16T07:34:18;3.00;3.00;2.00
49343;PMS5003;35210;41.606;-87.602;2023-01-16T07:36:47;5.00;5.00;2.80
49343;PMS5003;35210;41.606;-87.602;2023-01-16T07:39:15;7.20;7.20;4.60
49343;PMS5003;35210;41.606;-87.602;2023-01-16T07:41:44;6.60;6.00;3.00
49343;PMS5003;35210;41.606;-87.602;2023-01-16T07:44:13;5.60;5.60;3.00
49343;PMS5003;35210;41.606;-87.602;2023-01-16T07:46:43;4.60;4.60;2.20
49343;PMS5003;35210;41.606;-87.602;2023-01-16T07:49:12;6.20;5.00;3.00
49343;PMS5003;35210;41.606;-87.602;2023-01-16T07:51:41;6.00;6.00;2.60
49343;PMS5003;35210;41.606;-87.602;2023-01-16T07:54:10;5.20;2.40;2.00
49343;PMS5003;35210;41.606;-87.602;2023-01-16T07:56:39;5.40;5.40;2.00
49343;PMS5003;35210;41.606;-87.602;2023-01-16T07:59:07;2.00;2.00;1.00
49343;PMS5003;35210;41.606;-87.602;2023-01-16T08:01:35;3.80;3.80;2.00
49343;PMS5003;35210;41.606;-87.602;2023-01-16T08:04:06;3.00;3.00;2.40
49343;PMS5003;35210;41.606;-87.602;2023-01-16T08:06:34;5.20;5.20;2.00
49343;PMS5003;35210;41.606;-87.602;2023-01-16T08:09:09;6.40;5.40;2.00
49343;PMS5003;35210;41.606;-87.602;2023-01-16T08:11:37;11.60;7.00;3.00
49343;PMS5003;35210;41.606;-87.602;2023-01-16T08:14:06;2.80;2.80;2.00
49343;PMS5003;35210;41.606;-87.602;2023-01-16T08:16:39;6.00;6.00;2.00
49343;PMS5003;35210;41.606;-87.602;2023-01-16T08:19:09;5.60;5.60;2.00
49343;PMS5003;35210;41.606;-87.602;2023-01-16T08:21:37;3.00;3.00;2.00
49343;PMS5003;35210;41.606;-87.602;2023-01-16T08:24:06;6.00;6.00;3.00
49343;PMS5003;35210;41.606;-87.602;2023-01-16T08:26:38;2.40;2.40;1.00
49343;PMS5003;35210;41.606;-87.602;2023-01-16T08:29:07;6.20;5.60;1.60
49343;PMS5003;35210;41.606;-87.602;2023-01-16T08:31:36;7.80;6.20;2.60
49343;PMS5003;35210;41.606;-87.602;2023-01-16T08:34:05;5.20;5.20;3.00
49343;PMS5003;35210;41.606;-87.602;2023-01-16T08:36:35;5.00;5.00;2.00
49343;PMS5003;35210;41.606;-87.602;2023-01-16T08:39:03;6.40;5.40;2.00
49343;PMS5003;35210;41.606;-87.602;2023-01-16T08:41:31;2.60;2.60;1.00
49343;PMS5003;35210;41.606;-87.602;2023-01-16T08:44:29;3.00;3.00;1.60
49343;PMS5003;35210;41.606;-87.602;2023-01-16T08:47:22;3.00;3.00;2.00
49343;PMS5003;35210;41.606;-87.602;2023-01-16T08:50:11;5.60;5.00;2.00
49343;PMS5003;35210;41.606;-87.602;2023-01-16T08:53:00;6.00;5.60;2.00
49343;PMS5003;35210;41.606;-87.602;2023-01-16T08:55:28;4.60;4.60;1.60
49343;PMS5003;35210;41.606;-87.602;2023-01-16T08:57:57;5.40;5.20;2.20
49343;PMS5003;35210;41.606;-87.602;2023-01-16T09:00:26;4.80;3.60;2.00
49343;PMS5003;35210;41.606;-87.602;2023-01-16T09:02:55;9.20;7.00;2.60
49343;PMS5003;35210;41.606;-87.602;2023-01-16T09:05:24;3.40;2.00;1.00
49343;PMS5003;35210;41.606;-87.602;2023-01-16T09:07:53;4.20;4.20;2.00
49343;PMS5003;35210;41.606;-87.602;2023-01-16T09:10:23;3.00;3.00;1.40
49343;PMS5003;35210;41.606;-87.602;2023-01-16T09:12:53;6.00;6.00;3.40
49343;PMS5003;35210;41.606;-87.602;2023-01-16T09:15:38;5.00;4.80;2.00
49343;PMS5003;35210;41.606;-87.602;2023-01-16T09:18:06;3.00;3.00;2.00
49343;PMS5003;35210;41.606;-87.602;2023-01-16T09:20:34;5.20;3.20;1.40
49343;PMS5003;35210;41.606;-87.602;2023-01-16T09:23:04;2.60;2.60;1.60
49343;PMS5003;35210;41.606;-87.602;2023-01-16T09:25:34;5.20;4.80;2.00
49343;PMS5003;35210;41.606;-87.602;2023-01-16T09:28:02;9.20;6.00;3.00
49343;PMS5003;35210;41.606;-87.602;2023-01-16T09:30:30;5.40;5.40;2.20
49343;PMS5003;35210;41.606;-87.602;2023-01-16T09:32:58;3.80;3.80;3.00
49343;PMS5003;35210;41.606;-87.602;2023-01-16T09:35:27;2.60;2.60;1.60
49343;PMS5003;35210;41.606;-87.602;2023-01-16T09:37:55;5.00;5.00;2.40
49343;PMS5003;35210;41.606;-87.602;2023-01-16T09:40:23;5.80;5.80;2.00
49343;PMS5003;35210;41.606;-87.602;2023-01-16T09:43:01;4.20;4.20;2.20
49343;PMS5003;35210;41.606;-87.602;2023-01-16T09:46:08;5.00;5.00;2.00
49343;PMS5003;35210;41.606;-87.602;2023-01-16T09:48:42;5.20;4.00;2.00
49343;PMS5003;35210;41.606;-87.602;2023-01-16T09:51:16;6.60;3.40;2.00
49343;PMS5003;35210;41.606;-87.602;2023-01-16T09:53:49;6.00;3.40;1.00
49343;PMS5003;35210;41.606;-87.602;2023-01-16T09:56:40;2.60;2.60;2.00
49343;PMS5003;35210;41.606;-87.602;2023-01-16T09:59:35;5.80;5.60;2.60
49343;PMS5003;35210;41.606;-87.602;2023-01-16T10:02:09;5.80;3.40;2.40
49343;PMS5003;35210;41.606;-87.602;2023-01-16T10:04:44;2.00;2.00;1.80
49343;PMS5003;35210;41.606;-87.602;2023-01-16T10:07:21;4.40;4.00;2.00
49343;PMS5003;35210;41.606;-87.602;2023-01-16T10:13:09;6.40;3.00;2.00
49343;PMS5003;35210;41.606;-87.602;2023-01-16T10:15:51;7.80;4.80;2.00
49343;PMS5003;35210;41.606;-87.602;2023-01-16T10:18:31;3.60;3.60;1.80
49343;PMS5003;35210;41.606;-87.602;2023-01-16T10:21:11;2.00;1.00;0.00
49343;PMS5003;35210;41.606;-87.602;2023-01-16T10:23:58;3.20;2.80;2.00
49343;PMS5003;35210;41.606;-87.602;2023-01-16T10:26:29;3.00;3.00;2.00
49343;PMS5003;35210;41.606;-87.602;2023-01-16T10:29:16;3.40;3.40;2.00
49343;PMS5003;35210;41.606;-87.602;2023-01-16T10:31:53;0.00;0.00;0.00
49343;PMS5003;35210;41.606;-87.602;2023-01-16T10:34:30;4.00;2.40;1.00
49343;PMS5003;35210;41.606;-87.602;2023-01-16T10:37:00;2.00;2.00;1.40
49343;PMS5003;35210;41.606;-87.602;2023-01-16T10:39:31;2.40;2.40;1.00
49343;PMS5003;35210;41.606;-87.602;2023-01-16T10:42:08;3.00;3.00;2.00
49343;PMS5003;35210;41.606;-87.602;2023-01-16T10:44:58;7.60;4.00;2.00
49343;PMS5003;35210;41.606;-87.602;2023-01-16T10:47:57;5.20;3.00;1.80
49343;PMS5003;35210;41.606;-87.602;2023-01-16T10:50:42;2.60;2.00;1.80
49343;PMS5003;35210;41.606;-87.602;2023-01-16T10:53:13;5.60;3.60;3.00
49343;PMS5003;35210;41.606;-87.602;2023-01-16T10:55:43;6.80;3.80;2.00
49343;PMS5003;35210;41.606;-87.602;2023-01-16T11:01:02;3.60;3.60;2.80
49343;PMS5003;35210;41.606;-87.602;2023-01-16T11:03:35;3.00;2.60;2.00
49343;PMS5003;35210;41.606;-87.602;2023-01-16T11:06:10;4.20;4.20;2.00
49343;PMS5003;35210;41.606;-87.602;2023-01-16T11:08:41;3.20;2.00;1.00
49343;PMS5003;35210;41.606;-87.602;2023-01-16T11:11:11;2.40;2.40;1.00
49343;PMS5003;35210;41.606;-87.602;2023-01-16T11:13:53;1.00;1.00;0.00
49343;PMS5003;35210;41.606;-87.602;2023-01-16T11:16:39;4.00;3.00;1.60
49343;PMS5003;35210;41.606;-87.602;2023-01-16T11:19:26;4.20;3.20;2.60
49343;PMS5003;35210;41.606;-87.602;2023-01-16T11:21:57;2.00;1.00;1.00
49343;PMS5003;35210;41.606;-87.602;2023-01-16T11:24:30;2.80;2.00;1.00
49343;PMS5003;35210;41.606;-87.602;2023-01-16T11:27:01;4.00;4.00;2.00
49343;PMS5003;35210;41.606;-87.602;2023-01-16T11:29:36;4.00;3.00;1.60
49343;PMS5003;35210;41.606;-87.602;2023-01-16T11:32:06;3.40;3.40;2.00
49343;PMS5003;35210;41.606;-87.602;2023-01-16T11:34:37;4.00;4.00;2.80
49343;PMS5003;35210;41.606;-87.602;2023-01-16T11:37:11;6.00;4.00;2.20
49343;PMS5003;35210;41.606;-87.602;2023-01-16T11:39:45;6.20;4.40;3.00
49343;PMS5003;35210;41.606;-87.602;2023-01-16T11:42:16;4.00;4.00;2.00
49343;PMS5003;35210;41.606;-87.602;2023-01-16T11:45:04;4.00;4.00;2.00
49343;PMS5003;35210;41.606;-87.602;2023-01-16T11:47:58;7.60;6.40;3.20
49343;PMS5003;35210;41.606;-87.602;2023-01-16T11:50:51;6.80;4.00;2.00
49343;PMS5003;35210;41.606;-87.602;2023-01-16T11:53:21;2.40;1.20;0.00
49343;PMS5003;35210;41.606;-87.602;2023-01-16T11:55:55;5.80;5.80;2.40
49343;PMS5003;35210;41.606;-87.602;2023-01-16T11:58:42;6.00;4.20;3.00
49343;PMS5003;35210;41.606;-87.602;2023-01-16T12:01:19;5.00;3.00;2.00
49343;PMS5003;35210;41.606;-87.602;2023-01-16T12:03:59;7.80;5.60;3.00
49343;PMS5003;35210;41.606;-87.602;2023-01-16T12:06:46;5.60;5.60;3.00
49343;PMS5003;35210;41.606;-87.602;2023-01-16T12:12:22;3.00;2.40;1.00
49343;PMS5003;35210;41.606;-87.602;2023-01-16T12:15:16;6.00;3.20;1.60
49343;PMS5003;35210;41.606;-87.602;2023-01-16T12:18:03;4.80;4.40;2.40
49343;PMS5003;35210;41.606;-87.602;2023-01-16T12:20:42;5.80;3.80;2.40
49343;PMS5003;35210;41.606;-87.602;2023-01-16T12:23:32;5.40;4.00;2.00
49343;PMS5003;35210;41.606;-87.602;2023-01-16T12:26:15;4.20;4.00;2.00
49343;PMS5003;35210;41.606;-87.602;2023-01-16T12:28:55;5.00;5.00;2.00
49343;PMS5003;35210;41.606;-87.602;2023-01-16T12:31:43;3.20;3.20;2.00
49343;PMS5003;35210;41.606;-87.602;2023-01-16T12:34:31;3.00;3.00;2.00
49343;PMS5003;35210;41.606;-87.602;2023-01-16T12:37:24;3.60;3.60;2.00
49343;PMS5003;35210;41.606;-87.602;2023-01-16T12:40:31;5.20;4.00;3.00
49343;PMS5003;35210;41.606;-87.602;2023-01-16T12:43:13;4.00;4.00;2.60
49343;PMS5003;35210;41.606;-87.602;2023-01-16T12:45:50;7.00;6.00;3.00
49343;PMS5003;35210;41.606;-87.602;2023-01-16T12:48:25;9.00;7.40;3.00
49343;PMS5003;35210;41.606;-87.602;2023-01-16T12:51:11;4.60;4.00;2.40
49343;PMS5003;35210;41.606;-87.602;2023-01-16T12:56:52;3.00;3.00;2.00
49343;PMS5003;35210;41.606;-87.602;2023-01-16T12:59:40;5.60;3.80;2.00
49343;PMS5003;35210;41.606;-87.602;2023-01-16T13:02:16;2.40;2.40;2.00
49343;PMS5003;35210;41.606;-87.602;2023-01-16T13:04:52;8.60;4.80;2.00
49343;PMS5003;35210;41.606;-87.602;2023-01-16T13:07:27;6.40;3.60;2.00
49343;PMS5003;35210;41.606;-87.602;2023-01-16T13:10:02;6.60;6.60;3.00
49343;PMS5003;35210;41.606;-87.602;2023-01-16T13:12:56;6.00;3.00;1.20
49343;PMS5003;35210;41.606;-87.602;2023-01-16T13:15:43;6.20;4.00;2.00
49343;PMS5003;35210;41.606;-87.602;2023-01-16T13:18:17;5.40;3.00;2.80
49343;PMS5003;35210;41.606;-87.602;2023-01-16T13:20:51;5.20;4.40;2.00
49343;PMS5003;35210;41.606;-87.602;2023-01-16T13:23:23;5.20;4.00;2.80
49343;PMS5003;35210;41.606;-87.602;2023-01-16T13:25:55;5.60;5.60;3.00
49343;PMS5003;35210;41.606;-87.602;2023-01-16T13:28:35;4.60;3.00;2.00
49343;PMS5003;35210;41.606;-87.602;2023-01-16T13:31:16;6.40;4.00;2.00
49343;PMS5003;35210;41.606;-87.602;2023-01-16T13:33:51;3.00;3.00;1.00
49343;PMS5003;35210;41.606;-87.602;2023-01-16T13:36:41;4.20;4.20;2.40
49343;PMS5003;35210;41.606;-87.602;2023-01-16T13:39:40;5.20;3.60;2.00
49343;PMS5003;35210;41.606;-87.602;2023-01-16T13:42:35;3.60;3.20;2.00
49343;PMS5003;35210;41.606;-87.602;2023-01-16T13:45:16;4.60;3.60;2.00
49343;PMS5003;35210;41.606;-87.602;2023-01-16T13:48:10;5.00;4.80;3.00
49343;PMS5003;35210;41.606;-87.602;2023-01-16T13:50:42;3.00;3.00;2.00
49343;PMS5003;35210;41.606;-87.602;2023-01-16T13:53:14;7.80;5.80;2.60
49343;PMS5003;35210;41.606;-87.602;2023-01-16T13:55:45;5.60;5.60;2.60
49343;PMS5003;35210;41.606;-87.602;2023-01-16T13:58:15;4.40;4.40;2.40
49343;PMS5003;35210;41.606;-87.602;2023-01-16T14:00:54;5.20;3.40;2.80
49343;PMS5003;35210;41.606;-87.602;2023-01-16T14:03:25;5.20;5.20;3.00
49343;PMS5003;35210;41.606;-87.602;2023-01-16T14:08:48;4.00;2.80;1.40
49343;PMS5003;35210;41.606;-87.602;2023-01-16T14:11:36;3.00;3.00;2.20
49343;PMS5003;35210;41.606;-87.602;2023-01-16T14:14:28;5.80;3.00;2.00
49343;PMS5003;35210;41.606;-87.602;2023-01-16T14:17:20;6.00;6.00;3.20
49343;PMS5003;35210;41.606;-87.602;2023-01-16T14:19:54;3.00;3.00;1.00
49343;PMS5003;35210;41.606;-87.602;2023-01-16T14:22:26;3.40;3.20;1.00
49343;PMS5003;35210;41.606;-87.602;2023-01-16T14:25:27;3.00;3.00;2.00
49343;PMS5003;35210;41.606;-87.602;2023-01-16T14:27:57;7.00;4.00;3.00
49343;PMS5003;35210;41.606;-87.602;2023-01-16T14:30:25;8.40;6.40;2.60
49343;PMS5003;35210;41.606;-87.602;2023-01-16T14:33:00;7.60;5.40;2.60
49343;PMS5003;35210;41.606;-87.602;2023-01-16T14:35:40;5.80;4.40;3.00
49343;PMS5003;35210;41.606;-87.602;2023-01-16T14:38:13;2.60;2.00;1.00
49343;PMS5003;35210;41.606;-87.602;2023-01-16T14:40:49;5.20;4.20;3.00
49343;PMS5003;35210;41.606;-87.602;2023-01-16T14:43:42;1.80;1.20;0.20
49343;PMS5003;35210;41.606;-87.602;2023-01-16T14:46:50;5.40;4.80;3.00
49343;PMS5003;35210;41.606;-87.602;2023-01-16T14:49:44;5.40;5.40;2.00